Time;durP1;ratioP1;P1;durP2;ratioP2;P2;SDS_P1;SDS_P2;PMS_P1;PMS_P2;Temp;Humidity;BMP_temperature;BMP_pressure;BME280_temperature;BME280_humidity;BME280_pressure;Samples;Min_cycle;Max_cycle;Signal;HPM_P1;HPM_P2
2022/09/04 00:02:31;;;;;;;1.60;1.50;;;;;;;15.78;100.00;100213.88;4964533;28;20204;-79
2022/09/04 00:05:18;;;;;;;2.50;1.70;;;;;;;15.72;100.00;100225.34;4966445;28;20262;-80
2022/09/04 00:08:02;;;;;;;1.97;1.30;;;;;;;15.69;100.00;100218.50;4968870;28;20206;-78
2022/09/04 00:10:41;;;;;;;2.87;1.90;;;;;;;15.65;100.00;100213.41;4968487;28;20201;-81
2022/09/04 00:13:13;;;;;;;1.83;1.73;;;;;;;15.61;100.00;100222.25;4981797;28;20577;-76
2022/09/04 00:15:43;;;;;;;1.33;1.23;;;;;;;15.59;100.00;100221.44;4968918;28;20190;-80
2022/09/04 00:18:32;;;;;;;2.77;1.67;;;;;;;15.57;100.00;100225.84;4966914;28;20206;-78
2022/09/04 00:21:02;;;;;;;1.87;1.77;;;;;;;15.53;100.00;100223.31;4975028;28;20319;-77
2022/09/04 00:23:42;;;;;;;1.77;1.63;;;;;;;15.52;100.00;100228.59;4966814;28;20674;-78
2022/09/04 00:26:29;;;;;;;1.60;1.50;;;;;;;15.50;100.00;100223.41;4968272;28;20303;-78
2022/09/04 00:28:59;;;;;;;2.23;1.57;;;;;;;15.49;100.00;100224.31;4966256;28;20186;-77
2022/09/04 00:31:47;;;;;;;1.67;1.40;;;;;;;15.50;100.00;100227.78;4968362;28;20205;-77
2022/09/04 00:34:21;;;;;;;2.00;1.90;;;;;;;15.49;100.00;100228.66;4971110;28;20248;-78
2022/09/04 00:36:51;;;;;;;1.97;1.80;;;;;;;15.48;100.00;100225.22;4967224;28;20304;-79
2022/09/04 00:39:44;;;;;;;1.80;1.70;;;;;;;15.48;100.00;100234.78;4966085;28;20295;-77
2022/09/04 00:42:42;;;;;;;1.83;1.70;;;;;;;15.47;100.00;100238.28;4956659;28;20208;-76
2022/09/04 00:45:26;;;;;;;1.73;1.57;;;;;;;15.47;100.00;100231.34;4960016;28;20200;-76
2022/09/04 00:48:10;;;;;;;1.70;1.60;;;;;;;15.46;100.00;100234.84;4966890;28;20613;-75
2022/09/04 00:50:54;;;;;;;1.67;1.57;;;;;;;15.46;100.00;100236.59;4966632;28;20182;-75
2022/09/04 00:53:53;;;;;;;1.47;1.37;;;;;;;15.46;100.00;100240.06;4972781;28;20267;-76
2022/09/04 00:56:34;;;;;;;2.23;1.80;;;;;;;15.44;100.00;100241.84;4982649;28;20214;-75
2022/09/04 00:59:08;;;;;;;2.17;1.80;;;;;;;15.44;100.00;100240.97;4966359;28;20219;-76
2022/09/04 01:01:34;;;;;;;1.50;1.40;;;;;;;15.41;100.00;100241.09;4966860;28;20213;-78
2022/09/04 01:04:27;;;;;;;1.80;1.60;;;;;;;15.37;100.00;100255.97;4969990;28;20721;-74
2022/09/04 01:06:52;;;;;;;2.80;1.83;;;;;;;15.30;100.00;100255.28;4968263;28;20248;-80
2022/09/04 01:09:30;;;;;;;1.70;1.60;;;;;;;15.27;100.00;100264.97;4966830;28;20804;-75
2022/09/04 01:12:37;;;;;;;2.10;1.80;;;;;;;15.24;100.00;100258.94;4965022;28;20233;-76
2022/09/04 01:15:20;;;;;;;1.70;1.60;;;;;;;15.22;100.00;100255.50;4959856;28;20210;-76
2022/09/04 01:18:03;;;;;;;1.77;1.67;;;;;;;15.22;100.00;100265.94;4965533;28;20220;-76
2022/09/04 01:20:59;;;;;;;1.87;1.77;;;;;;;15.20;100.00;100275.56;4961397;28;20213;-76
2022/09/04 01:23:45;;;;;;;2.03;1.83;;;;;;;15.18;100.00;100264.34;4966102;28;20186;-76
2022/09/04 01:26:35;;;;;;;2.07;1.80;;;;;;;15.16;100.00;100281.78;4964431;28;20244;-75
2022/09/04 01:29:41;;;;;;;1.93;1.83;;;;;;;15.13;100.00;100283.59;4970236;28;20208;-75
2022/09/04 01:32:31;;;;;;;2.10;1.90;;;;;;;15.06;100.00;100278.56;4909338;29;20675;-77
2022/09/04 01:35:21;;;;;;;2.63;2.00;;;;;;;15.01;100.00;100284.81;4910209;29;20575;-79
2022/09/04 01:37:57;;;;;;;2.00;1.90;;;;;;;15.00;100.00;100288.31;4953925;28;20737;-78
2022/09/04 01:40:33;;;;;;;2.83;2.33;;;;;;;14.99;100.00;100287.44;4969865;28;20270;-76
2022/09/04 01:43:07;;;;;;;2.20;2.00;;;;;;;15.00;100.00;100293.50;4968958;28;20207;-78
2022/09/04 01:45:49;;;;;;;2.23;2.03;;;;;;;15.01;100.00;100292.63;4985418;28;20626;-77
2022/09/04 01:48:30;;;;;;;2.50;2.30;;;;;;;15.02;100.00;100294.34;4970704;28;20204;-77
2022/09/04 01:51:04;;;;;;;2.27;2.07;;;;;;;15.04;100.00;100292.53;4962750;28;20223;-77
2022/09/04 01:53:35;;;;;;;2.00;1.90;;;;;;;15.03;100.00;100296.03;4976632;28;20189;-79
2022/09/04 01:56:11;;;;;;;2.10;1.97;;;;;;;15.04;100.00;100302.97;4964969;28;20213;-76
2022/09/04 01:58:47;;;;;;;2.43;2.23;;;;;;;15.02;100.00;100300.38;4962856;28;20231;-78
2022/09/04 02:01:18;;;;;;;3.77;2.10;;;;;;;15.02;100.00;100296.94;4964101;28;20279;-79
2022/09/04 02:04:01;;;;;;;1.90;1.80;;;;;;;15.01;100.00;100296.06;4969025;28;20689;-76
2022/09/04 02:06:32;;;;;;;2.27;2.00;;;;;;;15.01;100.00;100295.22;4970072;28;20681;-77
2022/09/04 02:09:09;;;;;;;2.80;2.27;;;;;;;15.00;100.00;100301.34;4968164;28;20201;-76
2022/09/04 02:11:35;;;;;;;2.30;2.10;;;;;;;14.98;100.00;100298.75;4967370;28;20264;-76
2022/09/04 02:14:26;;;;;;;2.10;1.97;;;;;;;14.98;100.00;100288.31;4963432;28;20185;-77
2022/09/04 02:17:17;;;;;;;2.20;2.00;;;;;;;14.95;100.00;100298.84;4968549;28;20209;-77
2022/09/04 02:19:58;;;;;;;2.07;1.80;;;;;;;14.94;100.00;100295.38;4963971;28;20268;-75
2022/09/04 02:22:48;;;;;;;2.30;2.10;;;;;;;14.93;100.00;100295.44;4971254;28;20232;-75
2022/09/04 02:25:20;;;;;;;2.50;2.30;;;;;;;14.92;100.00;100304.16;4958512;28;20569;-76
2022/09/04 02:28:04;;;;;;;2.00;1.90;;;;;;;14.91;100.00;100295.47;4966757;28;20241;-78
2022/09/04 02:30:38;;;;;;;2.13;1.93;;;;;;;14.91;100.00;100300.66;4962314;28;20661;-77
2022/09/04 02:33:16;;;;;;;2.20;2.00;;;;;;;14.90;100.00;100301.56;4966814;28;21237;-77
2022/09/04 02:35:45;;;;;;;2.10;2.00;;;;;;;14.90;100.00;100300.72;4969599;28;20282;-78
2022/09/04 02:38:40;;;;;;;1.87;1.77;;;;;;;14.89;100.00;100302.50;4963831;28;20702;-76
2022/09/04 02:41:25;;;;;;;2.10;2.00;;;;;;;14.86;100.00;100301.69;4943462;28;20623;-76
2022/09/04 02:44:03;;;;;;;2.03;1.93;;;;;;;14.84;100.00;100301.75;4963215;28;20866;-76
2022/09/04 02:46:47;;;;;;;2.10;1.90;;;;;;;14.82;100.00;100300.94;4970050;28;20213;-75
2022/09/04 02:49:28;;;;;;;2.07;1.97;;;;;;;14.80;100.00;100302.72;4982958;28;20196;-78
2022/09/04 02:52:32;;;;;;;2.10;2.00;;;;;;;14.77;100.00;100308.00;4964453;28;20220;-77
2022/09/04 02:55:11;;;;;;;2.37;2.17;;;;;;;14.73;100.00;100307.22;4966406;28;20189;-76
2022/09/04 02:58:10;;;;;;;2.27;2.13;;;;;;;14.70;100.00;100311.66;4960808;28;20353;-78
2022/09/04 03:01:00;;;;;;;2.03;1.93;;;;;;;14.67;100.00;100304.72;4950163;28;20685;-76
2022/09/04 03:03:45;;;;;;;2.40;2.20;;;;;;;14.66;100.00;100315.22;4960675;28;20219;-78
2022/09/04 03:06:33;;;;;;;1.80;1.70;;;;;;;14.63;100.00;100311.78;4972273;28;20285;-76
2022/09/04 03:09:04;;;;;;;2.20;1.90;;;;;;;14.62;100.00;100320.50;4960022;28;20211;-76
2022/09/04 03:11:35;;;;;;;2.10;1.90;;;;;;;14.61;100.00;100317.94;4964151;28;20200;-75
2022/09/04 03:14:26;;;;;;;2.57;2.10;;;;;;;14.57;100.00;100311.97;4966254;28;20212;-75
2022/09/04 03:17:29;;;;;;;2.07;1.80;;;;;;;14.57;100.00;100313.69;4935058;28;20613;-76
2022/09/04 03:20:14;;;;;;;1.90;1.80;;;;;;;14.57;100.00;100317.16;4960762;28;20216;-75
2022/09/04 03:22:52;;;;;;;2.17;2.00;;;;;;;14.58;100.00;100308.47;4970143;28;20190;-76
2022/09/04 03:25:53;;;;;;;2.40;2.00;;;;;;;14.58;100.00;100318.00;4964411;28;20230;-75
2022/09/04 03:28:39;;;;;;;2.00;1.90;;;;;;;14.58;100.00;100316.28;4925967;29;20685;-76
2022/09/04 03:31:15;;;;;;;2.40;2.20;;;;;;;14.57;100.00;100327.59;4963468;28;20196;-76
2022/09/04 03:33:50;;;;;;;2.00;1.90;;;;;;;14.55;100.00;100318.94;4969955;28;20209;-75
2022/09/04 03:36:39;;;;;;;2.10;1.90;;;;;;;14.53;100.00;100322.47;4966921;28;20293;-75
2022/09/04 03:39:29;;;;;;;2.43;2.23;;;;;;;14.50;100.00;100330.38;4970575;28;20243;-77
2022/09/04 03:42:13;;;;;;;2.47;1.90;;;;;;;14.47;100.00;100329.56;4967963;28;20222;-77
2022/09/04 03:45:02;;;;;;;2.40;1.87;;;;;;;14.48;100.00;100335.59;4966063;28;20320;-78
2022/09/04 03:47:49;;;;;;;2.30;2.17;;;;;;;14.45;100.00;100330.47;4962144;28;20224;-77
2022/09/04 03:51:01;;;;;;;2.43;2.23;;;;;;;14.44;100.00;100334.00;4961567;28;20224;-78
2022/09/04 03:53:58;;;;;;;2.70;2.37;;;;;;;14.43;100.00;100337.47;4922242;28;20233;-78
2022/09/04 03:56:29;;;;;;;3.43;2.00;;;;;;;14.42;100.00;100335.78;4974364;28;20249;-77
2022/09/04 03:59:12;;;;;;;2.07;1.90;;;;;;;14.42;100.00;100341.81;4970592;28;20204;-75
2022/09/04 04:01:48;;;;;;;2.43;2.23;;;;;;;14.43;100.00;100338.31;4982653;28;20189;-75
2022/09/04 04:04:34;;;;;;;2.57;2.37;;;;;;;14.43;100.00;100340.09;4968326;28;20197;-76
2022/09/04 04:07:27;;;;;;;2.70;2.50;;;;;;;14.45;100.00;100346.09;4964398;28;20305;-77
2022/09/04 04:09:58;;;;;;;3.23;2.83;;;;;;;14.46;100.00;100338.25;4968700;28;20193;-76
2022/09/04 04:12:38;;;;;;;3.17;2.97;;;;;;;14.48;100.00;100340.81;4962558;28;20239;-77
2022/09/04 04:15:31;;;;;;;2.93;2.63;;;;;;;14.47;100.00;100344.31;4965115;28;20542;-75
2022/09/04 04:18:12;;;;;;;2.73;2.53;;;;;;;14.48;100.00;100353.81;4964199;28;20777;-75
2022/09/04 04:20:58;;;;;;;3.20;2.97;;;;;;;14.46;100.00;100346.06;4964843;28;20750;-77
2022/09/04 04:24:01;;;;;;;3.07;2.70;;;;;;;14.45;100.00;100354.78;4965263;28;20221;-75
2022/09/04 04:26:46;;;;;;;3.13;2.93;;;;;;;14.44;100.00;100360.88;4967489;28;20212;-77
2022/09/04 04:29:27;;;;;;;3.47;3.27;;;;;;;14.42;100.00;100354.84;4963737;28;20193;-78
2022/09/04 04:32:14;;;;;;;3.10;2.90;;;;;;;14.41;100.00;100355.72;4964664;28;20195;-77
2022/09/04 04:34:45;;;;;;;3.27;3.07;;;;;;;14.40;100.00;100364.44;4963262;28;20189;-75
2022/09/04 04:37:42;;;;;;;2.70;2.50;;;;;;;14.39;100.00;100365.31;4962592;28;20221;-75
2022/09/04 04:40:13;;;;;;;3.87;3.00;;;;;;;14.39;100.00;100372.28;4965063;28;20741;-76
2022/09/04 04:42:56;;;;;;;3.10;2.90;;;;;;;14.40;100.00;100374.00;4968411;28;20189;-77
2022/09/04 04:45:49;;;;;;;3.03;2.83;;;;;;;14.41;100.00;100373.94;4966990;28;20360;-76
2022/09/04 04:48:14;;;;;;;3.00;2.80;;;;;;;14.43;100.00;100371.34;4962081;28;20193;-76
2022/09/04 04:50:51;;;;;;;3.00;2.80;;;;;;;14.46;100.00;100374.72;4968552;28;20186;-78
2022/09/04 04:53:56;;;;;;;3.00;2.80;;;;;;;14.49;100.00;100381.59;4964193;28;20536;-76
2022/09/04 04:56:45;;;;;;;3.30;3.10;;;;;;;14.52;100.00;100389.31;4976623;28;20223;-77
2022/09/04 04:59:50;;;;;;;2.93;2.70;;;;;;;14.55;100.00;100391.00;4967411;28;20214;-78
2022/09/04 05:02:31;;;;;;;3.00;2.80;;;;;;;14.58;100.00;100393.53;4963201;28;20203;-77
2022/09/04 05:05:12;;;;;;;3.90;2.90;;;;;;;14.61;100.00;100401.28;4962712;28;20198;-77
2022/09/04 05:08:08;;;;;;;3.10;2.90;;;;;;;14.64;100.00;100396.84;4967990;28;20219;-76
2022/09/04 05:10:44;;;;;;;2.47;2.23;;;;;;;14.69;100.00;100395.91;4967830;28;20209;-79
2022/09/04 05:13:39;;;;;;;2.57;2.37;;;;;;;14.74;100.00;100404.50;4968748;28;20207;-78
2022/09/04 05:16:34;;;;;;;2.90;2.70;;;;;;;14.80;100.00;100419.09;4965624;28;20207;-78
2022/09/04 05:19:16;;;;;;;2.77;2.57;;;;;;;14.84;100.00;100416.38;4965931;28;20279;-76
2022/09/04 05:21:59;;;;;;;4.00;2.80;;;;;;;14.89;100.00;100417.13;4963061;28;20206;-79
2022/09/04 05:24:30;;;;;;;2.90;2.70;;;;;;;14.96;100.00;100420.44;4964888;28;20215;-79
2022/09/04 05:27:06;;;;;;;3.00;2.80;;;;;;;15.02;100.00;100429.84;4975621;28;20777;-80
2022/09/04 05:29:46;;;;;;;3.60;2.77;;;;;;;15.10;100.00;100435.72;4961537;28;20198;-76
2022/09/04 05:32:26;;;;;;;2.67;2.47;;;;;;;15.17;100.00;100436.41;4963656;28;20194;-79
2022/09/04 05:35:23;;;;;;;2.97;2.63;;;;;;;15.28;100.00;100443.97;4965898;28;20194;-76
2022/09/04 05:38:14;;;;;;;3.47;3.17;;;;;;;15.42;100.00;100448.81;4983994;28;20201;-77
2022/09/04 05:41:04;;;;;;;3.33;3.13;;;;;;;15.55;100.00;100453.66;4966343;28;20265;-76
2022/09/04 05:44:08;;;;;;;3.13;2.93;;;;;;;15.67;100.00;100462.03;4971199;28;20599;-76
2022/09/04 05:46:52;;;;;;;3.20;3.00;;;;;;;15.75;100.00;100467.91;4926470;28;20225;-77
2022/09/04 05:49:31;;;;;;;2.90;2.70;;;;;;;15.88;100.00;100465.88;4967415;28;20653;-76
2022/09/04 05:52:02;;;;;;;3.20;3.00;;;;;;;16.15;100.00;100465.97;4959001;28;20197;-77
2022/09/04 05:54:49;;;;;;;2.77;2.57;;;;;;;16.55;100.00;100464.75;4979238;28;20276;-78
2022/09/04 05:57:37;;;;;;;2.93;2.73;;;;;;;16.78;100.00;100471.03;4963005;28;20256;-76
2022/09/04 06:00:18;;;;;;;2.70;2.50;;;;;;;16.85;100.00;100474.28;4962927;28;20221;-78
2022/09/04 06:03:14;;;;;;;2.60;2.40;;;;;;;16.89;100.00;100471.53;4961919;28;20673;-76
2022/09/04 06:06:01;;;;;;;2.67;2.47;;;;;;;16.96;100.00;100480.06;4971643;28;20186;-76
2022/09/04 06:09:01;;;;;;;2.77;2.50;;;;;;;17.00;100.00;100467.72;4966469;28;20224;-79
2022/09/04 06:11:45;;;;;;;2.63;2.43;;;;;;;17.08;100.00;100478.81;4932676;28;20642;-77
2022/09/04 06:14:33;;;;;;;2.60;2.40;;;;;;;17.24;100.00;100476.53;4963298;28;20189;-81
2022/09/04 06:17:01;;;;;;;2.80;2.60;;;;;;;17.50;100.00;100478.25;4963453;28;20305;-80
2022/09/04 06:19:54;;;;;;;2.87;2.63;;;;;;;17.90;100.00;100482.97;4956981;28;20217;-77
2022/09/04 06:22:40;;;;;;;2.70;2.50;;;;;;;18.30;100.00;100484.16;4966933;28;20188;-78
2022/09/04 06:25:18;;;;;;;2.80;2.60;;;;;;;18.69;100.00;100482.63;4964791;28;20213;-77
2022/09/04 06:27:55;;;;;;;2.60;2.40;;;;;;;19.21;100.00;100486.72;4966917;28;20210;-77
2022/09/04 06:30:21;;;;;;;2.57;2.37;;;;;;;19.95;100.00;100494.03;4962183;28;20187;-78
2022/09/04 06:32:59;;;;;;;2.83;2.63;;;;;;;20.87;100.00;100498.56;4966074;28;20199;-77
2022/09/04 06:35:42;;;;;;;2.93;2.73;;;;;;;21.21;100.00;100502.19;4966572;28;20220;-77
2022/09/04 06:38:45;;;;;;;2.57;2.43;;;;;;;21.55;100.00;100511.00;4971753;28;20186;-78
2022/09/04 06:41:28;;;;;;;2.87;2.30;;;;;;;22.30;100.00;100510.59;4957759;28;20252;-79
2022/09/04 06:44:03;;;;;;;2.60;2.40;;;;;;;22.92;100.00;100501.91;4967483;28;20200;-80
2022/09/04 06:46:52;;;;;;;2.43;2.30;;;;;;;23.41;99.40;100503.50;4971057;28;20612;-77
2022/09/04 06:50:05;;;;;;;2.50;2.30;;;;;;;23.89;98.00;100505.91;4983466;28;20193;-79
2022/09/04 06:52:48;;;;;;;2.70;2.50;;;;;;;24.27;96.67;100506.28;4932103;28;20603;-80
2022/09/04 06:55:36;;;;;;;2.23;2.10;;;;;;;24.50;95.81;100508.28;5003129;28;20190;-79
2022/09/04 06:58:19;;;;;;;2.17;2.07;;;;;;;24.69;95.29;100509.75;4976222;28;20212;-81
2022/09/04 07:00:54;;;;;;;2.27;2.17;;;;;;;24.79;94.88;100510.03;4990553;28;20217;-79
2022/09/04 07:03:33;;;;;;;1.90;1.80;;;;;;;24.85;94.70;100509.66;4986357;28;20182;-78
2022/09/04 07:06:18;;;;;;;2.17;2.07;;;;;;;24.90;94.82;100510.19;4968757;28;20217;-80
2022/09/04 07:08:56;;;;;;;2.57;2.00;;;;;;;24.93;94.34;100522.38;4958506;28;20193;-80
2022/09/04 07:11:36;;;;;;;1.90;1.80;;;;;;;24.88;93.92;100522.66;4968555;28;20194;-79
2022/09/04 07:14:15;;;;;;;2.10;1.90;;;;;;;24.81;94.12;100529.31;4965148;28;20256;-76
2022/09/04 07:16:44;;;;;;;2.57;1.80;;;;;;;24.75;94.16;100532.34;4958240;28;20214;-79
2022/09/04 07:19:19;;;;;;;1.97;1.87;;;;;;;24.68;94.26;100531.03;4961203;28;20265;-76
2022/09/04 07:21:59;;;;;;;2.07;1.70;;;;;;;24.61;94.38;100527.94;4961873;28;20203;-76
2022/09/04 07:24:25;;;;;;;2.37;1.87;;;;;;;24.50;94.72;100525.97;4959192;28;20244;-78
2022/09/04 07:27:12;;;;;;;1.97;1.70;;;;;;;24.42;95.00;100526.47;4964488;28;20219;-75
2022/09/04 07:29:43;;;;;;;1.93;1.83;;;;;;;24.29;95.53;100530.84;4951537;28;20660;-77
2022/09/04 07:32:26;;;;;;;1.77;1.67;;;;;;;24.16;95.52;100528.09;4981111;28;20670;-77
2022/09/04 07:35:10;;;;;;;1.87;1.70;;;;;;;23.98;95.95;100532.75;4960648;28;20209;-75
2022/09/04 07:37:47;;;;;;;2.03;1.90;;;;;;;23.88;96.65;100530.66;4963047;28;20245;-75
2022/09/04 07:40:24;;;;;;;2.17;1.80;;;;;;;23.76;95.64;100534.00;4961514;28;20252;-75
2022/09/04 07:42:52;;;;;;;2.10;2.00;;;;;;;23.60;96.46;100539.38;4961794;28;20200;-76
2022/09/04 07:45:36;;;;;;;1.80;1.70;;;;;;;23.57;96.84;100537.78;4961711;28;20226;-75
2022/09/04 07:48:20;;;;;;;2.17;2.00;;;;;;;23.50;96.57;100541.72;4964422;28;20186;-77
2022/09/04 07:51:08;;;;;;;2.23;2.03;;;;;;;23.44;97.11;100542.09;4965346;28;20218;-77
2022/09/04 07:53:52;;;;;;;2.17;1.60;;;;;;;23.46;97.37;100555.19;4969248;28;20658;-76
2022/09/04 07:56:36;;;;;;;1.90;1.80;;;;;;;23.40;97.98;100554.59;4961510;28;20217;-78
2022/09/04 07:59:29;;;;;;;1.65;1.55;;;;;;;23.39;97.68;100560.81;4961939;28;20194;-78
2022/09/04 08:01:54;;;;;;;1.70;1.60;;;;;;;23.36;97.78;100558.38;4976811;28;20217;-75
2022/09/04 08:04:57;;;;;;;2.37;2.17;;;;;;;23.24;97.65;100565.22;4958652;28;20225;-76
2022/09/04 08:07:37;;;;;;;1.80;1.70;;;;;;;23.23;98.58;100571.44;4962402;28;20235;-75
2022/09/04 08:10:24;;;;;;;2.20;2.10;;;;;;;23.17;98.84;100570.91;4962516;28;20192;-76
2022/09/04 08:13:11;;;;;;;2.30;2.10;;;;;;;23.10;99.64;100573.06;4970847;28;20247;-78
2022/09/04 08:15:42;;;;;;;2.30;2.10;;;;;;;23.07;99.92;100570.59;4966236;28;20244;-77
2022/09/04 08:18:18;;;;;;;2.13;2.03;;;;;;;23.03;100.00;100572.56;4973725;28;20621;-74
2022/09/04 08:20:44;;;;;;;2.40;2.20;;;;;;;23.04;100.00;100581.31;4965472;28;20228;-75
2022/09/04 08:23:28;;;;;;;2.20;2.00;;;;;;;23.04;100.00;100581.31;4966551;28;20965;-76
2022/09/04 08:25:53;;;;;;;2.53;2.33;;;;;;;23.04;100.00;100582.19;4959461;28;20248;-78
2022/09/04 08:28:43;;;;;;;2.50;2.27;;;;;;;23.04;100.00;100582.19;4958902;28;20317;-77
2022/09/04 08:31:24;;;;;;;2.60;2.40;;;;;;;23.06;99.42;100579.44;4959239;28;20193;-75
2022/09/04 08:33:58;;;;;;;2.67;2.47;;;;;;;23.06;99.84;100588.22;4956552;28;20317;-80
2022/09/04 08:36:33;;;;;;;2.30;2.20;;;;;;;23.13;100.00;100584.28;4967895;28;20227;-76
2022/09/04 08:39:35;;;;;;;2.50;2.30;;;;;;;23.17;99.42;100584.13;4961470;28;20188;-77
2022/09/04 08:42:04;;;;;;;2.87;2.30;;;;;;;23.22;99.60;100592.63;4981576;28;20645;-76
2022/09/04 08:44:45;;;;;;;2.10;1.90;;;;;;;23.29;99.78;100591.34;4969456;28;20533;-76
2022/09/04 08:47:30;;;;;;;2.03;1.93;;;;;;;23.29;99.36;100592.19;4966456;28;20209;-74
2022/09/04 08:50:16;;;;;;;2.23;2.03;;;;;;;23.36;99.13;100598.00;4980348;28;20221;-77
2022/09/04 08:53:09;;;;;;;2.10;2.00;;;;;;;23.44;99.16;100597.56;4963060;28;20208;-76
2022/09/04 08:55:34;;;;;;;2.20;2.00;;;;;;;23.49;99.02;100592.00;4962971;28;20277;-76
2022/09/04 08:58:21;;;;;;;2.10;1.90;;;;;;;23.56;98.59;100593.31;4963943;28;20333;-75
2022/09/04 09:01:02;;;;;;;2.20;2.10;;;;;;;23.54;98.11;100590.78;4964174;28;20219;-75
2022/09/04 09:03:58;;;;;;;2.10;2.00;;;;;;;23.56;97.85;100594.19;4956462;28;20181;-74
2022/09/04 09:07:05;;;;;;;2.23;2.07;;;;;;;23.56;97.54;100590.69;4965696;28;20205;-75
2022/09/04 09:09:39;;;;;;;2.20;2.10;;;;;;;23.60;97.61;100597.50;4964763;28;20193;-75
2022/09/04 09:12:43;;;;;;;2.10;2.00;;;;;;;23.72;97.01;100594.13;4963693;28;20193;-75
2022/09/04 09:15:35;;;;;;;2.70;2.43;;;;;;;23.77;96.23;100595.66;4963990;28;20236;-78
2022/09/04 09:18:01;;;;;;;2.07;1.97;;;;;;;23.76;96.53;100594.78;4965221;28;21000;-75
2022/09/04 09:20:47;;;;;;;2.23;2.13;;;;;;;23.83;96.37;100592.63;4966743;28;20217;-77
2022/09/04 09:23:36;;;;;;;2.27;2.17;;;;;;;23.88;96.53;100595.84;4982632;28;20276;-76
2022/09/04 09:26:05;;;;;;;2.13;2.03;;;;;;;23.96;96.01;100590.09;4970647;28;20212;-75
2022/09/04 09:28:49;;;;;;;2.17;2.07;;;;;;;24.03;94.72;100579.09;4968785;28;20186;-75
2022/09/04 09:31:51;;;;;;;2.37;2.17;;;;;;;24.03;93.33;100578.25;4966953;28;20212;-74
2022/09/04 09:34:34;;;;;;;1.90;1.80;;;;;;;24.04;93.95;100586.09;4967955;28;20184;-75
2022/09/04 09:37:23;;;;;;;2.60;1.97;;;;;;;24.11;93.46;100577.78;4966396;28;20249;-78
2022/09/04 09:40:03;;;;;;;1.80;1.70;;;;;;;24.17;93.27;100586.19;4960936;28;20218;-75
2022/09/04 09:42:48;;;;;;;2.00;1.80;;;;;;;24.14;93.14;100574.94;4972306;28;20232;-77
2022/09/04 09:45:25;;;;;;;2.40;2.00;;;;;;;24.17;92.61;100575.63;4965523;28;20257;-75
2022/09/04 09:48:11;;;;;;;2.50;2.30;;;;;;;24.17;92.48;100580.03;4959701;28;20177;-75
2022/09/04 09:50:46;;;;;;;2.00;1.90;;;;;;;24.29;92.75;100568.69;4960321;28;20225;-77
2022/09/04 09:53:35;;;;;;;2.43;1.80;;;;;;;24.45;92.01;100567.72;4967082;28;20188;-75
2022/09/04 09:56:15;;;;;;;2.00;1.90;;;;;;;24.52;91.52;100571.69;4963934;28;20207;-76
2022/09/04 09:58:53;;;;;;;1.80;1.70;;;;;;;24.62;91.41;100569.31;4965676;28;20201;-75
2022/09/04 10:01:24;;;;;;;1.83;1.73;;;;;;;24.71;90.89;100565.28;4969943;28;20824;-75
2022/09/04 10:04:38;;;;;;;2.17;1.93;;;;;;;24.83;90.50;100561.84;4961010;28;20268;-75
2022/09/04 10:07:42;;;;;;;2.13;1.83;;;;;;;25.04;90.03;100570.19;4952672;28;20753;-76
2022/09/04 10:10:31;;;;;;;1.63;1.53;;;;;;;25.20;89.87;100577.94;4962636;28;20277;-76
2022/09/04 10:13:20;;;;;;;2.40;1.73;;;;;;;25.43;85.91;100567.66;4973171;28;20466;-76
2022/09/04 10:15:58;;;;;;;3.03;2.00;;;;;;;25.52;85.04;100564.38;4965164;28;20563;-75
2022/09/04 10:18:35;;;;;;;1.83;1.73;;;;;;;25.47;85.40;100563.00;4965158;28;20185;-75
2022/09/04 10:21:25;;;;;;;2.30;2.03;;;;;;;25.49;85.97;100558.44;4964590;28;20697;-79
2022/09/04 10:24:19;;;;;;;2.03;1.83;;;;;;;25.49;84.20;100558.44;4965076;28;20202;-75
2022/09/04 10:27:12;;;;;;;2.10;1.90;;;;;;;25.69;83.59;100557.09;4960022;28;20206;-76
2022/09/04 10:30:09;;;;;;;1.97;1.80;;;;;;;25.95;82.73;100554.44;4969742;28;20201;-80
2022/09/04 10:33:03;;;;;;;1.77;1.67;;;;;;;26.17;82.19;100556.44;4955375;28;20269;-76
2022/09/04 10:35:38;;;;;;;2.73;1.60;;;;;;;26.33;79.01;100553.56;4958151;28;20198;-78
2022/09/04 10:38:24;;;;;;;1.53;1.43;;;;;;;26.10;78.43;100548.03;4956326;28;20292;-75
2022/09/04 10:41:20;;;;;;;2.73;1.77;;;;;;;25.90;80.11;100541.50;4975946;28;20284;-75
2022/09/04 10:44:04;;;;;;;1.53;1.40;;;;;;;25.75;78.16;100547.84;4961890;28;20193;-79
2022/09/04 10:46:50;;;;;;;1.83;1.73;;;;;;;25.54;80.28;100551.88;4959302;28;20217;-77
2022/09/04 10:49:29;;;;;;;2.13;1.93;;;;;;;25.56;80.89;100552.63;4961285;28;20198;-74
2022/09/04 10:52:20;;;;;;;2.07;1.67;;;;;;;25.41;81.03;100551.84;4961646;28;20959;-76
2022/09/04 10:55:13;;;;;;;1.93;1.70;;;;;;;25.22;81.13;100554.84;4966565;28;20208;-76
2022/09/04 10:57:55;;;;;;;1.57;1.47;;;;;;;25.38;81.28;100548.53;4962591;28;20200;-78
2022/09/04 11:00:30;;;;;;;1.60;1.50;;;;;;;25.68;81.61;100550.94;4973293;28;20277;-78
2022/09/04 11:03:02;;;;;;;1.63;1.53;;;;;;;26.00;77.58;100549.66;4969411;28;20209;-76
2022/09/04 11:05:34;;;;;;;1.80;1.70;;;;;;;26.03;78.50;100546.78;4980883;28;20583;-76
2022/09/04 11:08:04;;;;;;;1.73;1.60;;;;;;;26.13;79.17;100549.69;4976816;28;20198;-77
2022/09/04 11:10:48;;;;;;;2.30;1.60;;;;;;;26.12;78.79;100548.81;4969569;28;20192;-77
2022/09/04 11:13:22;;;;;;;2.30;1.80;;;;;;;25.83;78.54;100548.19;4971593;28;20553;-76
2022/09/04 11:16:15;;;;;;;1.70;1.60;;;;;;;25.41;79.93;100556.28;4971015;28;20225;-76
2022/09/04 11:19:10;;;;;;;1.60;1.50;;;;;;;25.08;79.71;100549.63;4976572;28;20194;-74
2022/09/04 11:21:38;;;;;;;1.70;1.60;;;;;;;24.98;79.47;100556.50;4952277;28;20686;-75
2022/09/04 11:24:13;;;;;;;1.50;1.40;;;;;;;25.08;77.20;100550.50;4957734;28;20197;-79
2022/09/04 11:26:53;;;;;;;1.40;1.30;;;;;;;25.24;77.27;100549.47;4975838;28;20307;-76
2022/09/04 11:29:40;;;;;;;1.83;1.70;;;;;;;25.50;75.96;100546.91;4961802;28;20197;-75
2022/09/04 11:32:33;;;;;;;1.40;1.20;;;;;;;25.53;75.11;100541.41;4961987;28;20603;-76
2022/09/04 11:35:18;;;;;;;1.57;1.40;;;;;;;25.55;75.95;100542.16;4961951;28;20181;-78
2022/09/04 11:37:55;;;;;;;1.97;1.50;;;;;;;25.39;75.51;100542.28;4970025;28;20251;-78
2022/09/04 11:40:45;;;;;;;1.40;1.30;;;;;;;25.38;75.22;100541.47;4966629;28;20220;-76
2022/09/04 11:43:48;;;;;;;1.67;1.40;;;;;;;25.56;75.24;100543.84;4961468;28;20228;-75
2022/09/04 11:46:32;;;;;;;1.40;1.30;;;;;;;25.67;74.47;100540.44;4967620;28;20209;-76
2022/09/04 11:49:30;;;;;;;1.77;1.30;;;;;;;25.56;73.18;100544.69;4965980;28;20451;-77
2022/09/04 11:52:15;;;;;;;1.40;1.30;;;;;;;25.40;72.46;100539.56;4958195;28;20259;-78
2022/09/04 11:54:59;;;;;;;1.10;1.10;;;;;;;25.40;72.75;100538.69;4961211;28;20195;-78
2022/09/04 11:57:39;;;;;;;1.30;1.20;;;;;;;25.60;73.02;100539.19;4964721;28;20213;-76
2022/09/04 12:00:11;;;;;;;1.40;1.30;;;;;;;25.82;73.11;100536.72;4986552;28;20211;-75
2022/09/04 12:02:36;;;;;;;1.10;1.10;;;;;;;25.93;73.11;100535.97;4980845;28;20458;-77
2022/09/04 12:05:38;;;;;;;1.40;1.30;;;;;;;26.05;73.18;100538.72;4963887;28;20192;-76
2022/09/04 12:08:22;;;;;;;1.40;1.30;;;;;;;26.14;74.05;100538.97;4964403;28;20328;-76
2022/09/04 12:11:18;;;;;;;1.47;1.37;;;;;;;26.22;73.39;100534.94;4964876;28;20689;-75
2022/09/04 12:13:46;;;;;;;1.10;0.90;;;;;;;26.23;73.06;100534.81;4979194;28;20565;-75
2022/09/04 12:16:41;;;;;;;1.20;1.20;;;;;;;26.26;72.63;100531.94;4958454;28;20237;-75
2022/09/04 12:19:25;;;;;;;1.30;1.20;;;;;;;26.28;72.69;100538.00;4966051;28;20224;-76
2022/09/04 12:22:25;;;;;;;1.90;1.60;;;;;;;26.32;73.00;100541.25;4965399;28;20233;-76
2022/09/04 12:25:02;;;;;;;2.33;1.20;;;;;;;26.29;72.32;100533.53;4976704;28;20218;-77
2022/09/04 12:27:54;;;;;;;1.47;1.20;;;;;;;26.37;72.13;100527.66;4964681;28;20213;-76
2022/09/04 12:30:29;;;;;;;2.07;1.33;;;;;;;26.45;72.06;100541.25;4965330;28;20188;-76
2022/09/04 12:33:24;;;;;;;1.03;1.03;;;;;;;26.55;71.84;100529.00;4967247;28;20197;-75
2022/09/04 12:35:50;;;;;;;1.10;1.10;;;;;;;26.54;71.18;100531.78;4977917;28;20249;-75
2022/09/04 12:38:37;;;;;;;1.30;1.20;;;;;;;26.58;70.62;100533.22;4964143;28;20206;-76